sensor_id;sensor_type;location;lat;lon;timestamp;pressure;altitude;pressure_sealevel;temperature;humidity
29879;BME280;16752;53.364;-1.488;2022-09-09T00:00:12;99158.28;;;23.87;50.33
29879;BME280;16752;53.364;-1.488;2022-09-09T00:02:42;99159.25;;;23.92;50.34
29879;BME280;16752;53.364;-1.488;2022-09-09T00:05:51;99161.50;;;23.95;50.54
29879;BME280;16752;53.364;-1.488;2022-09-09T00:09:21;99166.63;;;23.97;50.19
29879;BME280;16752;53.364;-1.488;2022-09-09T00:23:54;99176.22;;;24.04;50.35
29879;BME280;16752;53.364;-1.488;2022-09-09T00:32:22;99178.78;;;23.93;50.51
29879;BME280;16752;53.364;-1.488;2022-09-09T00:35:42;99177.16;;;23.92;50.55
29879;BME280;16752;53.364;-1.488;2022-09-09T00:38:51;99181.47;;;23.93;50.58
29879;BME280;16752;53.364;-1.488;2022-09-09T00:48:01;99173.00;;;23.96;50.65
29879;BME280;16752;53.364;-1.488;2022-09-09T00:53:19;99179.63;;;23.93;50.59
29879;BME280;16752;53.364;-1.488;2022-09-09T00:56:16;99167.50;;;23.91;50.42
29879;BME280;16752;53.364;-1.488;2022-09-09T01:05:17;99171.38;;;23.95;50.41
29879;BME280;16752;53.364;-1.488;2022-09-09T01:08:01;99173.00;;;23.96;50.25
29879;BME280;16752;53.364;-1.488;2022-09-09T01:10:37;99171.97;;;23.97;50.42
29879;BME280;16752;53.364;-1.488;2022-09-09T08:26:32;99356.19;;;23.87;52.24
29879;BME280;16752;53.364;-1.488;2022-09-09T08:31:58;99354.34;;;23.81;52.41
29879;BME280;16752;53.364;-1.488;2022-09-09T08:34:24;99363.56;;;23.98;51.88
29879;BME280;16752;53.364;-1.488;2022-09-09T08:36:52;99361.59;;;23.60;52.47
29879;BME280;16752;53.364;-1.488;2022-09-09T08:39:20;99362.78;;;23.91;52.04
29879;BME280;16752;53.364;-1.488;2022-09-09T08:51:57;99377.56;;;24.45;51.04
29879;BME280;16752;53.364;-1.488;2022-09-09T08:54:24;99390.97;;;23.80;52.73
29879;BME280;16752;53.364;-1.488;2022-09-09T08:56:51;99387.66;;;23.85;52.44
29879;BME280;16752;53.364;-1.488;2022-09-09T08:59:17;99391.59;;;23.75;52.62
29879;BME280;16752;53.364;-1.488;2022-09-09T09:01:48;99399.41;;;23.84;52.58
29879;BME280;16752;53.364;-1.488;2022-09-09T09:07:11;99398.00;;;23.74;51.94
29879;BME280;16752;53.364;-1.488;2022-09-09T09:12:25;99406.00;;;23.88;51.57
29879;BME280;16752;53.364;-1.488;2022-09-09T09:14:52;99411.28;;;24.01;51.92
29879;BME280;16752;53.364;-1.488;2022-09-09T09:17:19;99416.63;;;24.01;51.58
29879;BME280;16752;53.364;-1.488;2022-09-09T09:19:45;99413.16;;;23.94;51.13
29879;BME280;16752;53.364;-1.488;2022-09-09T09:27:13;99409.00;;;24.11;51.02
29879;BME280;16752;53.364;-1.488;2022-09-09T09:29:39;99411.38;;;24.77;49.52
29879;BME280;16752;53.364;-1.488;2022-09-09T09:32:05;99414.91;;;24.33;50.42
29879;BME280;16752;53.364;-1.488;2022-09-09T09:34:32;99420.56;;;24.50;50.21
29879;BME280;16752;53.364;-1.488;2022-09-09T09:36:59;99422.03;;;24.46;49.71
29879;BME280;16752;53.364;-1.488;2022-09-09T09:39:29;99417.72;;;24.51;49.54
29879;BME280;16752;53.364;-1.488;2022-09-09T09:41:55;99418.09;;;24.55;49.58
29879;BME280;16752;53.364;-1.488;2022-09-09T09:44:25;99425.44;;;24.66;49.54
29879;BME280;16752;53.364;-1.488;2022-09-09T09:46:51;99427.09;;;24.67;49.26
29879;BME280;16752;53.364;-1.488;2022-09-09T09:49:18;99437.94;;;24.79;48.88
29879;BME280;16752;53.364;-1.488;2022-09-09T09:51:43;99430.09;;;25.15;47.57
29879;BME280;16752;53.364;-1.488;2022-09-09T09:56:38;99436.75;;;25.56;46.45
29879;BME280;16752;53.364;-1.488;2022-09-09T09:59:04;99439.06;;;25.77;46.68
29879;BME280;16752;53.364;-1.488;2022-09-09T10:01:31;99432.22;;;26.00;46.30
29879;BME280;16752;53.364;-1.488;2022-09-09T10:04:14;99437.34;;;26.19;45.50
29879;BME280;16752;53.364;-1.488;2022-09-09T10:06:41;99438.66;;;26.35;44.87
29879;BME280;16752;53.364;-1.488;2022-09-09T10:09:23;99439.56;;;26.59;45.13
29879;BME280;16752;53.364;-1.488;2022-09-09T10:11:52;99441.56;;;26.94;43.76
29879;BME280;16752;53.364;-1.488;2022-09-09T10:14:21;99446.41;;;27.03;43.34
29879;BME280;16752;53.364;-1.488;2022-09-09T10:19:31;99445.16;;;27.18;42.79
29879;BME280;16752;53.364;-1.488;2022-09-09T10:22:02;99446.97;;;27.35;41.78
29879;BME280;16752;53.364;-1.488;2022-09-09T10:24:39;99446.56;;;27.20;43.00
29879;BME280;16752;53.364;-1.488;2022-09-09T10:32:36;99441.69;;;26.99;42.11
29879;BME280;16752;53.364;-1.488;2022-09-09T10:37:41;99435.75;;;27.85;40.94
29879;BME280;16752;53.364;-1.488;2022-09-09T10:40:17;99444.72;;;28.26;41.99
29879;BME280;16752;53.364;-1.488;2022-09-09T10:42:45;99444.59;;;28.33;40.63
29879;BME280;16752;53.364;-1.488;2022-09-09T10:47:46;99438.75;;;28.93;40.29
29879;BME280;16752;53.364;-1.488;2022-09-09T10:50:35;99440.22;;;29.00;39.13
29879;BME280;16752;53.364;-1.488;2022-09-09T10:56:08;99446.94;;;29.14;39.91
29879;BME280;16752;53.364;-1.488;2022-09-09T11:01:39;99448.59;;;29.32;37.76
29879;BME280;16752;53.364;-1.488;2022-09-09T11:04:44;99446.38;;;29.29;37.11
29879;BME280;16752;53.364;-1.488;2022-09-09T11:10:42;99438.59;;;28.99;38.38
29879;BME280;16752;53.364;-1.488;2022-09-09T11:16:22;99441.88;;;28.73;37.77
29879;BME280;16752;53.364;-1.488;2022-09-09T11:19:03;99446.25;;;28.90;37.66
29879;BME280;16752;53.364;-1.488;2022-09-09T11:21:46;99439.69;;;29.32;37.17
29879;BME280;16752;53.364;-1.488;2022-09-09T11:32:51;99444.88;;;28.88;36.84
29879;BME280;16752;53.364;-1.488;2022-09-09T11:38:15;99450.78;;;29.18;38.14
29879;BME280;16752;53.364;-1.488;2022-09-09T11:40:43;99446.69;;;29.66;38.15
29879;BME280;16752;53.364;-1.488;2022-09-09T11:47:16;99450.69;;;28.97;35.96
29879;BME280;16752;53.364;-1.488;2022-09-09T11:53:03;99461.50;;;28.85;36.44
29879;BME280;16752;53.364;-1.488;2022-09-09T11:58:32;99472.41;;;28.50;39.80
29879;BME280;16752;53.364;-1.488;2022-09-09T12:00:59;99471.50;;;28.44;40.04
29879;BME280;16752;53.364;-1.488;2022-09-09T12:03:35;99479.38;;;28.22;39.95
29879;BME280;16752;53.364;-1.488;2022-09-09T12:06:11;99475.03;;;28.21;40.73
29879;BME280;16752;53.364;-1.488;2022-09-09T12:08:40;99475.06;;;28.10;40.92
29879;BME280;16752;53.364;-1.488;2022-09-09T12:11:07;99478.13;;;28.02;41.83
29879;BME280;16752;53.364;-1.488;2022-09-09T12:13:32;99476.59;;;27.94;41.66
29879;BME280;16752;53.364;-1.488;2022-09-09T12:18:52;99471.78;;;28.08;40.71
29879;BME280;16752;53.364;-1.488;2022-09-09T12:21:34;99476.06;;;28.44;40.79
29879;BME280;16752;53.364;-1.488;2022-09-09T12:24:11;99471.84;;;28.76;39.44
29879;BME280;16752;53.364;-1.488;2022-09-09T12:29:23;99481.47;;;29.29;40.69
29879;BME280;16752;53.364;-1.488;2022-09-09T12:32:14;99463.84;;;28.93;37.68
29879;BME280;16752;53.364;-1.488;2022-09-09T12:38:57;99475.50;;;29.77;39.23
29879;BME280;16752;53.364;-1.488;2022-09-09T12:41:26;99486.63;;;29.64;39.55
29879;BME280;16752;53.364;-1.488;2022-09-09T13:05:52;99516.06;;;27.47;45.82
29879;BME280;16752;53.364;-1.488;2022-09-09T13:08:27;99521.84;;;27.62;45.63
29879;BME280;16752;53.364;-1.488;2022-09-09T13:12:05;99534.88;;;27.77;45.62
29879;BME280;16752;53.364;-1.488;2022-09-09T13:18:39;99543.78;;;27.35;45.27
29879;BME280;16752;53.364;-1.488;2022-09-09T13:21:18;99532.72;;;27.14;45.26
29879;BME280;16752;53.364;-1.488;2022-09-09T13:29:52;99543.03;;;26.50;45.74
29879;BME280;16752;53.364;-1.488;2022-09-09T13:32:22;99540.69;;;26.35;45.88
29879;BME280;16752;53.364;-1.488;2022-09-09T13:35:03;99538.97;;;25.98;44.45
29879;BME280;16752;53.364;-1.488;2022-09-09T13:38:13;99541.66;;;25.73;45.84
29879;BME280;16752;53.364;-1.488;2022-09-09T13:40:47;99546.38;;;25.77;45.79
29879;BME280;16752;53.364;-1.488;2022-09-09T13:46:37;99549.38;;;25.63;47.11
29879;BME280;16752;53.364;-1.488;2022-09-09T13:51:47;99541.09;;;25.64;47.48
29879;BME280;16752;53.364;-1.488;2022-09-09T13:54:29;99556.94;;;25.97;47.22
29879;BME280;16752;53.364;-1.488;2022-09-09T13:56:59;99555.34;;;26.14;46.95
29879;BME280;16752;53.364;-1.488;2022-09-09T13:59:31;99557.19;;;26.39;47.07
29879;BME280;16752;53.364;-1.488;2022-09-09T14:01:57;99554.03;;;26.78;46.54
29879;BME280;16752;53.364;-1.488;2022-09-09T14:04:22;99543.66;;;27.00;45.52
29879;BME280;16752;53.364;-1.488;2022-09-09T14:06:47;99541.16;;;26.51;44.36
29879;BME280;16752;53.364;-1.488;2022-09-09T14:09:15;99542.16;;;27.04;44.98
29879;BME280;16752;53.364;-1.488;2022-09-09T14:11:41;99543.25;;;27.15;44.93
29879;BME280;16752;53.364;-1.488;2022-09-09T14:14:06;99551.16;;;27.10;45.42
29879;BME280;16752;53.364;-1.488;2022-09-09T14:16:33;99554.91;;;27.09;45.08
29879;BME280;16752;53.364;-1.488;2022-09-09T14:18:59;99560.84;;;26.99;45.54
29879;BME280;16752;53.364;-1.488;2022-09-09T14:21:24;99557.59;;;27.09;45.76
29879;BME280;16752;53.364;-1.488;2022-09-09T14:23:50;99576.28;;;27.04;45.82
29879;BME280;16752;53.364;-1.488;2022-09-09T14:26:15;99588.97;;;26.97;45.80
29879;BME280;16752;53.364;-1.488;2022-09-09T14:29:06;99591.22;;;26.63;45.66
29879;BME280;16752;53.364;-1.488;2022-09-09T14:31:31;99575.75;;;26.59;45.59
29879;BME280;16752;53.364;-1.488;2022-09-09T14:33:57;99580.09;;;26.41;45.78
29879;BME280;16752;53.364;-1.488;2022-09-09T14:36:24;99580.84;;;26.24;45.82
29879;BME280;16752;53.364;-1.488;2022-09-09T14:38:50;99582.34;;;26.19;45.93
29879;BME280;16752;53.364;-1.488;2022-09-09T14:41:18;99588.28;;;26.03;45.53
29879;BME280;16752;53.364;-1.488;2022-09-09T14:43:44;99588.09;;;25.73;46.01
29879;BME280;16752;53.364;-1.488;2022-09-09T14:46:11;99594.88;;;25.76;46.67
29879;BME280;16752;53.364;-1.488;2022-09-09T14:48:37;99592.22;;;25.76;46.74
29879;BME280;16752;53.364;-1.488;2022-09-09T14:51:09;99582.75;;;25.67;47.08
29879;BME280;16752;53.364;-1.488;2022-09-09T14:53:34;99589.81;;;25.68;47.08
29879;BME280;16752;53.364;-1.488;2022-09-09T14:56:05;99587.97;;;25.62;47.01
29879;BME280;16752;53.364;-1.488;2022-09-09T14:58:31;99583.66;;;25.54;46.23
29879;BME280;16752;53.364;-1.488;2022-09-09T15:01:07;99588.56;;;25.64;46.44
29879;BME280;16752;53.364;-1.488;2022-09-09T15:03:35;99583.50;;;25.80;46.71
29879;BME280;16752;53.364;-1.488;2022-09-09T15:06:10;99584.56;;;26.04;46.71
29879;BME280;16752;53.364;-1.488;2022-09-09T15:08:37;99580.56;;;26.32;46.67
29879;BME280;16752;53.364;-1.488;2022-09-09T15:11:03;99579.53;;;26.33;44.64
29879;BME280;16752;53.364;-1.488;2022-09-09T15:13:29;99577.53;;;26.83;45.65
29879;BME280;16752;53.364;-1.488;2022-09-09T15:15:55;99580.41;;;27.36;45.26
29879;BME280;16752;53.364;-1.488;2022-09-09T15:18:21;99575.97;;;28.07;43.44
29879;BME280;16752;53.364;-1.488;2022-09-09T15:20:46;99574.09;;;28.54;40.95
29879;BME280;16752;53.364;-1.488;2022-09-09T15:23:13;99582.16;;;29.46;40.96
29879;BME280;16752;53.364;-1.488;2022-09-09T15:26:00;99583.31;;;29.84;38.78
29879;BME280;16752;53.364;-1.488;2022-09-09T15:28:25;99583.50;;;30.11;36.43
29879;BME280;16752;53.364;-1.488;2022-09-09T15:30:51;99584.16;;;30.18;35.72
29879;BME280;16752;53.364;-1.488;2022-09-09T15:33:20;99588.56;;;29.57;37.57
29879;BME280;16752;53.364;-1.488;2022-09-09T15:35:46;99595.69;;;29.35;39.66
29879;BME280;16752;53.364;-1.488;2022-09-09T15:38:11;99595.09;;;29.04;41.06
29879;BME280;16752;53.364;-1.488;2022-09-09T15:40:41;99606.75;;;28.93;41.82
29879;BME280;16752;53.364;-1.488;2022-09-09T15:43:06;99610.63;;;28.62;42.13
29879;BME280;16752;53.364;-1.488;2022-09-09T15:45:33;99617.88;;;28.61;42.17
29879;BME280;16752;53.364;-1.488;2022-09-09T15:47:59;99614.75;;;28.53;42.29
29879;BME280;16752;53.364;-1.488;2022-09-09T15:50:25;99619.81;;;28.26;42.52
29879;BME280;16752;53.364;-1.488;2022-09-09T15:52:51;99621.38;;;27.92;43.39
29879;BME280;16752;53.364;-1.488;2022-09-09T15:55:18;99616.88;;;27.74;43.62
29879;BME280;16752;53.364;-1.488;2022-09-09T15:57:44;99628.00;;;27.48;44.41
29879;BME280;16752;53.364;-1.488;2022-09-09T16:00:15;99627.41;;;27.34;44.37
29879;BME280;16752;53.364;-1.488;2022-09-09T16:02:41;99629.19;;;27.22;44.68
29879;BME280;16752;53.364;-1.488;2022-09-09T16:05:07;99635.75;;;26.89;44.96
29879;BME280;16752;53.364;-1.488;2022-09-09T16:07:33;99633.31;;;26.69;44.71
29879;BME280;16752;53.364;-1.488;2022-09-09T16:10:01;99636.44;;;26.48;45.20
29879;BME280;16752;53.364;-1.488;2022-09-09T16:12:27;99622.59;;;26.19;44.56
29879;BME280;16752;53.364;-1.488;2022-09-09T16:14:52;99625.25;;;26.26;44.97
29879;BME280;16752;53.364;-1.488;2022-09-09T16:17:18;99623.78;;;26.05;44.86
29879;BME280;16752;53.364;-1.488;2022-09-09T16:19:45;99615.88;;;26.10;44.75
29879;BME280;16752;53.364;-1.488;2022-09-09T16:22:11;99630.78;;;26.06;45.00
29879;BME280;16752;53.364;-1.488;2022-09-09T16:24:37;99629.16;;;25.74;45.76
29879;BME280;16752;53.364;-1.488;2022-09-09T16:27:03;99627.44;;;25.86;45.59
29879;BME280;16752;53.364;-1.488;2022-09-09T16:29:29;99629.75;;;25.82;45.77
29879;BME280;16752;53.364;-1.488;2022-09-09T16:31:54;99638.28;;;25.28;46.79
29879;BME280;16752;53.364;-1.488;2022-09-09T16:34:20;99643.63;;;25.28;46.97
29879;BME280;16752;53.364;-1.488;2022-09-09T16:36:47;99641.34;;;25.38;46.43
29879;BME280;16752;53.364;-1.488;2022-09-09T16:39:16;99639.00;;;25.48;46.46
29879;BME280;16752;53.364;-1.488;2022-09-09T16:41:42;99646.94;;;25.30;46.76
29879;BME280;16752;53.364;-1.488;2022-09-09T16:44:10;99645.88;;;25.31;46.73
29879;BME280;16752;53.364;-1.488;2022-09-09T16:46:39;99648.63;;;25.63;46.94
29879;BME280;16752;53.364;-1.488;2022-09-09T16:49:06;99650.16;;;25.83;47.07
29879;BME280;16752;53.364;-1.488;2022-09-09T16:51:36;99647.59;;;25.95;47.12
29879;BME280;16752;53.364;-1.488;2022-09-09T16:54:10;99659.94;;;25.71;47.08
29879;BME280;16752;53.364;-1.488;2022-09-09T16:56:49;99657.66;;;26.00;46.78
29879;BME280;16752;53.364;-1.488;2022-09-09T16:59:40;99663.94;;;26.18;47.04
29879;BME280;16752;53.364;-1.488;2022-09-09T17:02:08;99659.88;;;26.09;46.52
29879;BME280;16752;53.364;-1.488;2022-09-09T17:04:33;99663.75;;;26.13;46.31
29879;BME280;16752;53.364;-1.488;2022-09-09T17:06:59;99661.91;;;26.14;46.72
29879;BME280;16752;53.364;-1.488;2022-09-09T17:09:28;99662.41;;;26.04;46.77
29879;BME280;16752;53.364;-1.488;2022-09-09T17:11:54;99660.13;;;26.01;46.45
29879;BME280;16752;53.364;-1.488;2022-09-09T17:14:21;99671.81;;;26.13;46.57
29879;BME280;16752;53.364;-1.488;2022-09-09T17:16:46;99671.59;;;26.15;46.51
29879;BME280;16752;53.364;-1.488;2022-09-09T17:19:13;99677.47;;;26.05;47.27
29879;BME280;16752;53.364;-1.488;2022-09-09T17:21:39;99677.88;;;26.02;47.31
29879;BME280;16752;53.364;-1.488;2022-09-09T17:24:04;99678.75;;;25.96;47.27
29879;BME280;16752;53.364;-1.488;2022-09-09T17:26:31;99680.78;;;26.01;47.37
29879;BME280;16752;53.364;-1.488;2022-09-09T17:29:03;99684.91;;;26.03;47.13
29879;BME280;16752;53.364;-1.488;2022-09-09T17:31:30;99685.94;;;26.02;47.24
29879;BME280;16752;53.364;-1.488;2022-09-09T17:33:59;99698.72;;;26.07;47.20
29879;BME280;16752;53.364;-1.488;2022-09-09T17:36:27;99699.78;;;25.99;47.11
29879;BME280;16752;53.364;-1.488;2022-09-09T17:38:57;99710.41;;;25.87;47.24
29879;BME280;16752;53.364;-1.488;2022-09-09T17:41:34;99703.69;;;25.72;47.09
29879;BME280;16752;53.364;-1.488;2022-09-09T17:44:00;99710.69;;;25.73;47.39
29879;BME280;16752;53.364;-1.488;2022-09-09T17:46:30;99717.13;;;25.58;47.49
29879;BME280;16752;53.364;-1.488;2022-09-09T17:48:57;99721.72;;;25.51;47.57
29879;BME280;16752;53.364;-1.488;2022-09-09T17:51:25;99718.00;;;25.52;47.47
29879;BME280;16752;53.364;-1.488;2022-09-09T17:54:09;99721.09;;;25.49;47.89
29879;BME280;16752;53.364;-1.488;2022-09-09T17:57:01;99721.97;;;25.43;47.65
29879;BME280;16752;53.364;-1.488;2022-09-09T17:59:26;99721.56;;;25.40;47.65
29879;BME280;16752;53.364;-1.488;2022-09-09T18:01:55;99734.19;;;25.26;48.55
29879;BME280;16752;53.364;-1.488;2022-09-09T18:04:20;99738.28;;;25.35;48.13
29879;BME280;16752;53.364;-1.488;2022-09-09T18:06:47;99733.78;;;25.16;48.47
29879;BME280;16752;53.364;-1.488;2022-09-09T18:09:17;99741.44;;;25.19;48.60
29879;BME280;16752;53.364;-1.488;2022-09-09T18:11:47;99744.94;;;25.13;48.66
29879;BME280;16752;53.364;-1.488;2022-09-09T18:14:15;99745.38;;;25.10;48.79
29879;BME280;16752;53.364;-1.488;2022-09-09T18:16:42;99743.28;;;25.12;48.52
29879;BME280;16752;53.364;-1.488;2022-09-09T18:19:08;99745.38;;;25.10;48.49
29879;BME280;16752;53.364;-1.488;2022-09-09T18:21:36;99754.63;;;24.94;49.02
29879;BME280;16752;53.364;-1.488;2022-09-09T18:24:03;99744.34;;;24.97;48.42
29879;BME280;16752;53.364;-1.488;2022-09-09T18:26:30;99753.44;;;24.77;49.01
29879;BME280;16752;53.364;-1.488;2022-09-09T18:29:05;99750.13;;;24.88;48.63
29879;BME280;16752;53.364;-1.488;2022-09-09T18:31:30;99755.47;;;24.88;48.75
29879;BME280;16752;53.364;-1.488;2022-09-09T18:33:57;99768.47;;;24.71;49.21
29879;BME280;16752;53.364;-1.488;2022-09-09T18:36:28;99767.25;;;24.80;48.98
29879;BME280;16752;53.364;-1.488;2022-09-09T18:38:57;99779.00;;;24.79;48.66
29879;BME280;16752;53.364;-1.488;2022-09-09T18:41:27;99781.47;;;24.74;49.10
29879;BME280;16752;53.364;-1.488;2022-09-09T18:43:56;99778.16;;;24.72;49.04
29879;BME280;16752;53.364;-1.488;2022-09-09T18:46:25;99779.41;;;24.63;49.31
29879;BME280;16752;53.364;-1.488;2022-09-09T18:48:51;99788.06;;;24.65;49.13
29879;BME280;16752;53.364;-1.488;2022-09-09T18:51:18;99786.00;;;24.67;49.31
29879;BME280;16752;53.364;-1.488;2022-09-09T18:54:01;99788.88;;;24.59;49.18
29879;BME280;16752;53.364;-1.488;2022-09-09T18:56:30;99792.59;;;24.58;49.28
29879;BME280;16752;53.364;-1.488;2022-09-09T18:59:06;99794.41;;;24.51;49.34
29879;BME280;16752;53.364;-1.488;2022-09-09T19:01:32;99808.22;;;24.41;49.43
29879;BME280;16752;53.364;-1.488;2022-09-09T19:03:59;99804.44;;;24.22;49.58
29879;BME280;16752;53.364;-1.488;2022-09-09T19:06:26;99814.41;;;24.35;49.37
29879;BME280;16752;53.364;-1.488;2022-09-09T19:08:52;99815.38;;;24.27;49.68
29879;BME280;16752;53.364;-1.488;2022-09-09T19:11:19;99816.88;;;24.30;49.35
29879;BME280;16752;53.364;-1.488;2022-09-09T19:13:51;99821.31;;;24.10;49.61
29879;BME280;16752;53.364;-1.488;2022-09-09T19:16:18;99815.56;;;24.19;49.78
29879;BME280;16752;53.364;-1.488;2022-09-09T19:18:44;99822.34;;;24.22;49.75
29879;BME280;16752;53.364;-1.488;2022-09-09T19:21:11;99825.44;;;24.25;49.47
29879;BME280;16752;53.364;-1.488;2022-09-09T19:23:37;99832.03;;;24.23;49.52
29879;BME280;16752;53.364;-1.488;2022-09-09T19:26:03;99833.06;;;24.22;49.62
29879;BME280;16752;53.364;-1.488;2022-09-09T19:28:33;99835.75;;;24.22;49.86
29879;BME280;16752;53.364;-1.488;2022-09-09T19:31:03;99839.25;;;24.22;49.45
29879;BME280;16752;53.364;-1.488;2022-09-09T19:33:31;99836.56;;;24.22;49.69
29879;BME280;16752;53.364;-1.488;2022-09-09T19:36:01;99845.84;;;24.26;49.67
29879;BME280;16752;53.364;-1.488;2022-09-09T19:38:27;99845.50;;;24.29;49.43
29879;BME280;16752;53.364;-1.488;2022-09-09T19:40:53;99847.28;;;24.22;49.59
29879;BME280;16752;53.364;-1.488;2022-09-09T19:43:19;99849.94;;;24.22;49.56
29879;BME280;16752;53.364;-1.488;2022-09-09T19:45:55;99855.94;;;24.24;49.55
29879;BME280;16752;53.364;-1.488;2022-09-09T19:48:21;99858.03;;;24.29;49.42
29879;BME280;16752;53.364;-1.488;2022-09-09T19:50:47;99861.06;;;24.19;49.40
29879;BME280;16752;53.364;-1.488;2022-09-09T19:53:13;99866.91;;;24.29;49.30
29879;BME280;16752;53.364;-1.488;2022-09-09T19:55:38;99860.88;;;24.27;49.20
29879;BME280;16752;53.364;-1.488;2022-09-09T19:58:04;99869.91;;;24.20;49.39
29879;BME280;16752;53.364;-1.488;2022-09-09T20:00:30;99863.38;;;24.29;49.12
29879;BME280;16752;53.364;-1.488;2022-09-09T20:02:55;99868.28;;;24.25;49.15
29879;BME280;16752;53.364;-1.488;2022-09-09T20:05:23;99869.59;;;24.29;49.23
29879;BME280;16752;53.364;-1.488;2022-09-09T20:07:49;99873.25;;;24.28;49.05
29879;BME280;16752;53.364;-1.488;2022-09-09T20:10:15;99875.69;;;24.23;49.13
29879;BME280;16752;53.364;-1.488;2022-09-09T20:12:40;99877.34;;;24.24;48.99
29879;BME280;16752;53.364;-1.488;2022-09-09T20:15:06;99877.75;;;24.21;48.87
29879;BME280;16752;53.364;-1.488;2022-09-09T20:17:33;99882.69;;;24.18;48.97
29879;BME280;16752;53.364;-1.488;2022-09-09T20:19:59;99882.88;;;24.16;49.20
29879;BME280;16752;53.364;-1.488;2022-09-09T20:22:24;99881.03;;;24.23;49.07
29879;BME280;16752;53.364;-1.488;2022-09-09T20:24:50;99881.88;;;24.24;48.99
29879;BME280;16752;53.364;-1.488;2022-09-09T20:27:15;99889.06;;;24.23;48.87
29879;BME280;16752;53.364;-1.488;2022-09-09T20:29:41;99879.19;;;24.17;49.20
29879;BME280;16752;53.364;-1.488;2022-09-09T20:32:07;99887.81;;;24.13;49.36
29879;BME280;16752;53.364;-1.488;2022-09-09T20:34:33;99890.44;;;24.06;49.57
29879;BME280;16752;53.364;-1.488;2022-09-09T20:36:59;99896.47;;;24.21;48.95
29879;BME280;16752;53.364;-1.488;2022-09-09T20:39:26;99899.75;;;24.17;49.00
29879;BME280;16752;53.364;-1.488;2022-09-09T20:41:52;99901.44;;;24.24;48.97
29879;BME280;16752;53.364;-1.488;2022-09-09T20:44:20;99901.72;;;24.29;48.78
29879;BME280;16752;53.364;-1.488;2022-09-09T20:46:49;99906.03;;;24.30;48.85
29879;BME280;16752;53.364;-1.488;2022-09-09T20:49:17;99905.25;;;24.02;48.72
29879;BME280;16752;53.364;-1.488;2022-09-09T20:51:42;99909.66;;;24.23;48.77
29879;BME280;16752;53.364;-1.488;2022-09-09T20:54:12;99908.63;;;24.24;48.56
29879;BME280;16752;53.364;-1.488;2022-09-09T20:56:39;99918.13;;;24.26;48.74
29879;BME280;16752;53.364;-1.488;2022-09-09T20:59:07;99917.28;;;24.19;48.81
29879;BME280;16752;53.364;-1.488;2022-09-09T21:01:35;99925.81;;;24.29;48.47
29879;BME280;16752;53.364;-1.488;2022-09-09T21:04:01;99920.25;;;24.31;48.31
29879;BME280;16752;53.364;-1.488;2022-09-09T21:06:26;99922.22;;;24.22;48.24
29879;BME280;16752;53.364;-1.488;2022-09-09T21:08:52;99923.53;;;24.33;48.12
29879;BME280;16752;53.364;-1.488;2022-09-09T21:11:17;99927.66;;;24.35;48.28
29879;BME280;16752;53.364;-1.488;2022-09-09T21:13:43;99934.88;;;24.35;48.36
29879;BME280;16752;53.364;-1.488;2022-09-09T21:16:10;99932.81;;;24.37;48.08
29879;BME280;16752;53.364;-1.488;2022-09-09T21:18:36;99934.66;;;24.36;48.21
29879;BME280;16752;53.364;-1.488;2022-09-09T21:21:02;99941.25;;;24.34;48.48
29879;BME280;16752;53.364;-1.488;2022-09-09T21:23:28;99943.50;;;24.30;48.49
29879;BME280;16752;53.364;-1.488;2022-09-09T21:25:54;99953.16;;;23.90;49.16
29879;BME280;16752;53.364;-1.488;2022-09-09T21:28:19;99947.75;;;24.18;48.52
29879;BME280;16752;53.364;-1.488;2022-09-09T21:30:48;99951.84;;;24.14;48.78
29879;BME280;16752;53.364;-1.488;2022-09-09T21:33:14;99948.97;;;24.16;48.65
29879;BME280;16752;53.364;-1.488;2022-09-09T21:35:40;99957.00;;;24.16;49.00
29879;BME280;16752;53.364;-1.488;2022-09-09T21:38:06;99953.53;;;24.22;48.48
29879;BME280;16752;53.364;-1.488;2022-09-09T21:40:35;99954.75;;;24.19;48.62
29879;BME280;16752;53.364;-1.488;2022-09-09T21:43:03;99959.28;;;24.19;48.58
29879;BME280;16752;53.364;-1.488;2022-09-09T21:45:29;99959.47;;;24.17;48.79
29879;BME280;16752;53.364;-1.488;2022-09-09T21:47:55;99966.88;;;24.15;48.44
29879;BME280;16752;53.364;-1.488;2022-09-09T21:50:20;99960.03;;;24.06;48.79
29879;BME280;16752;53.364;-1.488;2022-09-09T21:52:47;99960.81;;;24.00;48.89
29879;BME280;16752;53.364;-1.488;2022-09-09T21:55:13;99966.16;;;24.00;49.15
29879;BME280;16752;53.364;-1.488;2022-09-09T21:57:39;99972.97;;;24.02;49.14
29879;BME280;16752;53.364;-1.488;2022-09-09T22:00:06;99972.22;;;24.08;48.88
29879;BME280;16752;53.364;-1.488;2022-09-09T22:02:38;99973.25;;;24.14;48.70
29879;BME280;16752;53.364;-1.488;2022-09-09T22:05:04;99970.41;;;24.22;48.71
29879;BME280;16752;53.364;-1.488;2022-09-09T22:07:30;99975.72;;;24.16;48.60
29879;BME280;16752;53.364;-1.488;2022-09-09T22:09:57;99977.81;;;24.20;48.48
29879;BME280;16752;53.364;-1.488;2022-09-09T22:12:23;99981.13;;;24.22;48.54
29879;BME280;16752;53.364;-1.488;2022-09-09T22:14:49;99982.31;;;24.13;48.68
29879;BME280;16752;53.364;-1.488;2022-09-09T22:17:18;99981.31;;;24.21;48.66
29879;BME280;16752;53.364;-1.488;2022-09-09T22:19:44;99984.81;;;24.21;48.66
29879;BME280;16752;53.364;-1.488;2022-09-09T22:22:09;99983.97;;;24.14;48.71
29879;BME280;16752;53.364;-1.488;2022-09-09T22:24:35;99985.38;;;24.10;48.77
29879;BME280;16752;53.364;-1.488;2022-09-09T22:27:02;99990.78;;;24.23;48.66
29879;BME280;16752;53.364;-1.488;2022-09-09T22:29:29;99995.13;;;24.24;48.61
29879;BME280;16752;53.364;-1.488;2022-09-09T22:31:56;99993.06;;;24.26;48.63
29879;BME280;16752;53.364;-1.488;2022-09-09T22:34:22;99991.88;;;24.29;48.75
29879;BME280;16752;53.364;-1.488;2022-09-09T22:36:51;100001.75;;;24.28;48.84
29879;BME280;16752;53.364;-1.488;2022-09-09T22:39:16;100003.72;;;24.13;49.24
29879;BME280;16752;53.364;-1.488;2022-09-09T22:41:42;100003.56;;;24.21;48.93
29879;BME280;16752;53.364;-1.488;2022-09-09T22:44:08;100009.09;;;24.20;48.96
29879;BME280;16752;53.364;-1.488;2022-09-09T22:46:34;100014.03;;;24.16;48.99
29879;BME280;16752;53.364;-1.488;2022-09-09T22:49:00;100011.53;;;24.08;49.42
29879;BME280;16752;53.364;-1.488;2022-09-09T22:51:28;100018.47;;;24.02;49.36